sensor_id;sensor_type;location;lat;lon;timestamp;temperature;humidity
21559;DHT22;10940;48.890;8.240;2022-12-18T00:03:55;-6.40;99.90
21559;DHT22;10940;48.890;8.240;2022-12-18T00:06:21;-6.40;99.90
21559;DHT22;10940;48.890;8.240;2022-12-18T00:08:47;-6.40;99.90
21559;DHT22;10940;48.890;8.240;2022-12-18T00:11:15;-6.40;99.90
21559;DHT22;10940;48.890;8.240;2022-12-18T00:13:42;-6.40;99.90
21559;DHT22;10940;48.890;8.240;2022-12-18T00:16:10;-6.40;99.90
21559;DHT22;10940;48.890;8.240;2022-12-18T00:18:36;-6.40;99.90
21559;DHT22;10940;48.890;8.240;2022-12-18T00:21:06;-6.40;99.90
21559;DHT22;10940;48.890;8.240;2022-12-18T00:23:32;-6.40;99.90
21559;DHT22;10940;48.890;8.240;2022-12-18T00:26:02;-6.40;99.90
21559;DHT22;10940;48.890;8.240;2022-12-18T00:28:27;-6.30;99.90
21559;DHT22;10940;48.890;8.240;2022-12-18T00:31:01;-6.20;99.90
21559;DHT22;10940;48.890;8.240;2022-12-18T00:33:28;-6.20;99.90
21559;DHT22;10940;48.890;8.240;2022-12-18T00:35:53;-6.20;99.90
21559;DHT22;10940;48.890;8.240;2022-12-18T00:38:19;-6.20;99.90
21559;DHT22;10940;48.890;8.240;2022-12-18T00:40:44;-6.10;99.90
21559;DHT22;10940;48.890;8.240;2022-12-18T00:43:10;-6.00;99.90
21559;DHT22;10940;48.890;8.240;2022-12-18T00:45:35;-6.00;99.90
21559;DHT22;10940;48.890;8.240;2022-12-18T00:48:01;-6.10;99.90
21559;DHT22;10940;48.890;8.240;2022-12-18T00:50:27;-6.20;99.90
21559;DHT22;10940;48.890;8.240;2022-12-18T00:52:52;-6.20;99.90
21559;DHT22;10940;48.890;8.240;2022-12-18T00:55:18;-6.30;99.90
21559;DHT22;10940;48.890;8.240;2022-12-18T00:57:44;-6.40;99.90
21559;DHT22;10940;48.890;8.240;2022-12-18T01:00:12;-6.50;99.90
21559;DHT22;10940;48.890;8.240;2022-12-18T01:02:38;-6.50;99.90
21559;DHT22;10940;48.890;8.240;2022-12-18T01:05:05;-6.50;99.90
21559;DHT22;10940;48.890;8.240;2022-12-18T01:07:30;-6.50;99.90
21559;DHT22;10940;48.890;8.240;2022-12-18T01:09:56;-6.50;99.90
21559;DHT22;10940;48.890;8.240;2022-12-18T01:12:21;-6.50;99.90
21559;DHT22;10940;48.890;8.240;2022-12-18T01:14:47;-6.50;99.90
21559;DHT22;10940;48.890;8.240;2022-12-18T01:17:13;-6.50;99.90
21559;DHT22;10940;48.890;8.240;2022-12-18T01:19:38;-6.50;99.90
21559;DHT22;10940;48.890;8.240;2022-12-18T01:22:04;-6.40;99.90
21559;DHT22;10940;48.890;8.240;2022-12-18T01:24:29;-6.40;99.90
21559;DHT22;10940;48.890;8.240;2022-12-18T01:26:55;-6.40;99.90
21559;DHT22;10940;48.890;8.240;2022-12-18T01:29:22;-6.40;99.90
21559;DHT22;10940;48.890;8.240;2022-12-18T01:31:48;-6.50;99.90
21559;DHT22;10940;48.890;8.240;2022-12-18T01:34:14;-6.40;99.90
21559;DHT22;10940;48.890;8.240;2022-12-18T01:36:39;-6.40;99.90
21559;DHT22;10940;48.890;8.240;2022-12-18T01:39:11;-6.50;99.90
21559;DHT22;10940;48.890;8.240;2022-12-18T01:41:37;-6.50;99.90
21559;DHT22;10940;48.890;8.240;2022-12-18T01:45:00;-6.50;99.90
21559;DHT22;10940;48.890;8.240;2022-12-18T01:47:36;-6.50;99.90
21559;DHT22;10940;48.890;8.240;2022-12-18T01:52:34;-6.50;99.90
21559;DHT22;10940;48.890;8.240;2022-12-18T01:55:02;-6.50;99.90
21559;DHT22;10940;48.890;8.240;2022-12-18T01:57:29;-6.50;99.90
21559;DHT22;10940;48.890;8.240;2022-12-18T01:59:59;-6.50;99.90
21559;DHT22;10940;48.890;8.240;2022-12-18T02:02:27;-6.60;99.90
21559;DHT22;10940;48.890;8.240;2022-12-18T02:04:54;-6.50;99.90
21559;DHT22;10940;48.890;8.240;2022-12-18T02:07:22;-6.50;99.90
21559;DHT22;10940;48.890;8.240;2022-12-18T02:15:39;-6.50;99.90
21559;DHT22;10940;48.890;8.240;2022-12-18T02:18:12;-6.40;99.90
21559;DHT22;10940;48.890;8.240;2022-12-18T02:20:45;-6.40;99.90
21559;DHT22;10940;48.890;8.240;2022-12-18T02:28:34;-6.50;99.90
21559;DHT22;10940;48.890;8.240;2022-12-18T02:31:03;-6.50;99.90
21559;DHT22;10940;48.890;8.240;2022-12-18T02:33:30;-6.50;99.90
21559;DHT22;10940;48.890;8.240;2022-12-18T02:35:58;-6.40;99.90
21559;DHT22;10940;48.890;8.240;2022-12-18T02:38:25;-6.40;99.90
21559;DHT22;10940;48.890;8.240;2022-12-18T02:40:52;-6.50;99.90
21559;DHT22;10940;48.890;8.240;2022-12-18T02:43:18;-6.60;99.90
21559;DHT22;10940;48.890;8.240;2022-12-18T02:45:50;-6.60;99.90
21559;DHT22;10940;48.890;8.240;2022-12-18T02:48:18;-6.60;99.90
21559;DHT22;10940;48.890;8.240;2022-12-18T02:50:55;-6.50;99.90
21559;DHT22;10940;48.890;8.240;2022-12-18T02:53:32;-6.50;99.90
21559;DHT22;10940;48.890;8.240;2022-12-18T03:01:25;-6.50;99.90
21559;DHT22;10940;48.890;8.240;2022-12-18T03:04:01;-6.60;99.90
21559;DHT22;10940;48.890;8.240;2022-12-18T03:06:32;-6.60;99.90
21559;DHT22;10940;48.890;8.240;2022-12-18T03:09:13;-6.60;99.90
21559;DHT22;10940;48.890;8.240;2022-12-18T03:11:42;-6.60;99.90
21559;DHT22;10940;48.890;8.240;2022-12-18T03:14:29;-6.60;99.90
21559;DHT22;10940;48.890;8.240;2022-12-18T03:16:59;-6.60;99.90
21559;DHT22;10940;48.890;8.240;2022-12-18T03:19:28;-6.70;99.90
21559;DHT22;10940;48.890;8.240;2022-12-18T03:21:56;-6.70;99.90
21559;DHT22;10940;48.890;8.240;2022-12-18T03:24:24;-6.60;99.90
21559;DHT22;10940;48.890;8.240;2022-12-18T03:26:56;-6.70;99.90
21559;DHT22;10940;48.890;8.240;2022-12-18T03:29:28;-6.60;99.90
21559;DHT22;10940;48.890;8.240;2022-12-18T03:32:02;-6.60;99.90
21559;DHT22;10940;48.890;8.240;2022-12-18T03:34:34;-6.70;99.90
21559;DHT22;10940;48.890;8.240;2022-12-18T03:37:01;-6.60;99.90
21559;DHT22;10940;48.890;8.240;2022-12-18T03:39:27;-6.50;99.90
21559;DHT22;10940;48.890;8.240;2022-12-18T03:42:01;-6.30;99.90
21559;DHT22;10940;48.890;8.240;2022-12-18T03:44:41;-6.30;99.90
21559;DHT22;10940;48.890;8.240;2022-12-18T03:47:23;-6.40;99.90
21559;DHT22;10940;48.890;8.240;2022-12-18T03:49:59;-6.40;99.90
21559;DHT22;10940;48.890;8.240;2022-12-18T03:52:32;-6.40;99.90
21559;DHT22;10940;48.890;8.240;2022-12-18T03:55:00;-6.40;99.90
21559;DHT22;10940;48.890;8.240;2022-12-18T03:57:29;-6.40;99.90
21559;DHT22;10940;48.890;8.240;2022-12-18T04:00:09;-6.40;99.90
21559;DHT22;10940;48.890;8.240;2022-12-18T04:02:38;-6.40;99.90
21559;DHT22;10940;48.890;8.240;2022-12-18T04:05:07;-6.20;99.90
21559;DHT22;10940;48.890;8.240;2022-12-18T04:07:34;-6.20;99.90
21559;DHT22;10940;48.890;8.240;2022-12-18T04:10:02;-6.10;99.90
21559;DHT22;10940;48.890;8.240;2022-12-18T04:12:29;-6.10;99.90
21559;DHT22;10940;48.890;8.240;2022-12-18T04:14:55;-6.00;99.90
21559;DHT22;10940;48.890;8.240;2022-12-18T04:17:21;-6.00;99.90
21559;DHT22;10940;48.890;8.240;2022-12-18T04:19:47;-6.00;99.90
21559;DHT22;10940;48.890;8.240;2022-12-18T04:22:13;-6.10;99.90
21559;DHT22;10940;48.890;8.240;2022-12-18T04:24:39;-6.10;99.90
21559;DHT22;10940;48.890;8.240;2022-12-18T04:27:05;-6.10;99.90
21559;DHT22;10940;48.890;8.240;2022-12-18T04:29:31;-6.20;99.90
21559;DHT22;10940;48.890;8.240;2022-12-18T04:31:56;-6.20;99.90
21559;DHT22;10940;48.890;8.240;2022-12-18T04:34:22;-6.20;99.90
21559;DHT22;10940;48.890;8.240;2022-12-18T04:36:47;-6.20;99.90
21559;DHT22;10940;48.890;8.240;2022-12-18T04:39:14;-6.10;99.90
21559;DHT22;10940;48.890;8.240;2022-12-18T04:41:39;-6.20;99.90
21559;DHT22;10940;48.890;8.240;2022-12-18T04:44:06;-6.20;99.90
21559;DHT22;10940;48.890;8.240;2022-12-18T04:46:32;-6.30;99.90
21559;DHT22;10940;48.890;8.240;2022-12-18T04:48:57;-6.30;99.90
21559;DHT22;10940;48.890;8.240;2022-12-18T04:51:23;-6.40;99.90
21559;DHT22;10940;48.890;8.240;2022-12-18T04:53:48;-6.40;99.90
21559;DHT22;10940;48.890;8.240;2022-12-18T04:56:15;-6.40;99.90
21559;DHT22;10940;48.890;8.240;2022-12-18T04:58:43;-6.40;99.90
21559;DHT22;10940;48.890;8.240;2022-12-18T05:01:12;-6.40;99.90
21559;DHT22;10940;48.890;8.240;2022-12-18T05:03:38;-6.40;99.90
21559;DHT22;10940;48.890;8.240;2022-12-18T05:06:05;-6.40;99.90
21559;DHT22;10940;48.890;8.240;2022-12-18T05:08:31;-6.30;99.90
21559;DHT22;10940;48.890;8.240;2022-12-18T05:11:04;-6.20;99.90
21559;DHT22;10940;48.890;8.240;2022-12-18T05:13:32;-6.30;99.90
21559;DHT22;10940;48.890;8.240;2022-12-18T05:15:57;-6.20;99.90
21559;DHT22;10940;48.890;8.240;2022-12-18T05:18:23;-6.10;99.90
21559;DHT22;10940;48.890;8.240;2022-12-18T05:20:53;-6.10;99.90
21559;DHT22;10940;48.890;8.240;2022-12-18T05:23:21;-6.10;99.90
21559;DHT22;10940;48.890;8.240;2022-12-18T05:25:54;-6.10;99.90
21559;DHT22;10940;48.890;8.240;2022-12-18T05:28:21;-6.00;99.90
21559;DHT22;10940;48.890;8.240;2022-12-18T05:30:50;-6.00;99.90
21559;DHT22;10940;48.890;8.240;2022-12-18T05:33:18;-6.00;99.90
21559;DHT22;10940;48.890;8.240;2022-12-18T05:35:44;-6.10;99.90
21559;DHT22;10940;48.890;8.240;2022-12-18T05:38:10;-6.00;99.90
21559;DHT22;10940;48.890;8.240;2022-12-18T05:40:35;-5.90;99.90
21559;DHT22;10940;48.890;8.240;2022-12-18T05:43:02;-6.00;99.90
21559;DHT22;10940;48.890;8.240;2022-12-18T05:45:30;-6.00;99.90
21559;DHT22;10940;48.890;8.240;2022-12-18T05:47:56;-5.90;99.90
21559;DHT22;10940;48.890;8.240;2022-12-18T05:50:21;-5.90;99.90
21559;DHT22;10940;48.890;8.240;2022-12-18T05:52:47;-5.90;99.90
21559;DHT22;10940;48.890;8.240;2022-12-18T05:55:12;-5.90;99.90
21559;DHT22;10940;48.890;8.240;2022-12-18T05:57:38;-5.80;99.90
21559;DHT22;10940;48.890;8.240;2022-12-18T06:00:04;-5.80;99.90
21559;DHT22;10940;48.890;8.240;2022-12-18T06:02:29;-5.70;99.90
21559;DHT22;10940;48.890;8.240;2022-12-18T06:04:55;-5.80;99.90
21559;DHT22;10940;48.890;8.240;2022-12-18T06:07:21;-5.80;99.90
21559;DHT22;10940;48.890;8.240;2022-12-18T06:09:46;-5.80;99.90
21559;DHT22;10940;48.890;8.240;2022-12-18T06:12:12;-5.80;99.90
21559;DHT22;10940;48.890;8.240;2022-12-18T06:14:37;-5.80;99.90
21559;DHT22;10940;48.890;8.240;2022-12-18T06:17:03;-5.80;99.90
21559;DHT22;10940;48.890;8.240;2022-12-18T06:19:29;-5.70;99.90
21559;DHT22;10940;48.890;8.240;2022-12-18T06:21:54;-5.70;99.90
21559;DHT22;10940;48.890;8.240;2022-12-18T06:24:23;-5.60;99.90
21559;DHT22;10940;48.890;8.240;2022-12-18T06:26:48;-5.60;99.90
21559;DHT22;10940;48.890;8.240;2022-12-18T06:29:14;-5.60;99.90
21559;DHT22;10940;48.890;8.240;2022-12-18T06:31:39;-5.60;99.90
21559;DHT22;10940;48.890;8.240;2022-12-18T06:34:05;-5.60;99.90
21559;DHT22;10940;48.890;8.240;2022-12-18T06:36:31;-5.60;99.90
21559;DHT22;10940;48.890;8.240;2022-12-18T06:38:57;-5.60;99.90
21559;DHT22;10940;48.890;8.240;2022-12-18T06:41:22;-5.60;99.90
21559;DHT22;10940;48.890;8.240;2022-12-18T06:43:48;-5.60;99.90
21559;DHT22;10940;48.890;8.240;2022-12-18T06:46:14;-5.60;99.90
21559;DHT22;10940;48.890;8.240;2022-12-18T06:48:40;-5.70;99.90
21559;DHT22;10940;48.890;8.240;2022-12-18T06:51:05;-5.60;99.90
21559;DHT22;10940;48.890;8.240;2022-12-18T06:53:32;-5.60;99.90
21559;DHT22;10940;48.890;8.240;2022-12-18T06:56:02;-5.70;99.90
21559;DHT22;10940;48.890;8.240;2022-12-18T06:58:28;-5.70;99.90
21559;DHT22;10940;48.890;8.240;2022-12-18T07:00:58;-5.70;99.90
21559;DHT22;10940;48.890;8.240;2022-12-18T07:03:24;-5.80;99.90
21559;DHT22;10940;48.890;8.240;2022-12-18T07:05:49;-5.80;99.90
21559;DHT22;10940;48.890;8.240;2022-12-18T07:08:15;-5.80;99.90
21559;DHT22;10940;48.890;8.240;2022-12-18T07:10:42;-5.80;99.90
21559;DHT22;10940;48.890;8.240;2022-12-18T07:13:07;-5.80;99.90
21559;DHT22;10940;48.890;8.240;2022-12-18T07:15:33;-5.80;99.90
21559;DHT22;10940;48.890;8.240;2022-12-18T07:17:58;-5.80;99.90
21559;DHT22;10940;48.890;8.240;2022-12-18T07:20:24;-5.80;99.90
21559;DHT22;10940;48.890;8.240;2022-12-18T07:22:49;-5.80;99.90
21559;DHT22;10940;48.890;8.240;2022-12-18T07:25:15;-5.80;99.90
21559;DHT22;10940;48.890;8.240;2022-12-18T07:27:41;-5.80;99.90
21559;DHT22;10940;48.890;8.240;2022-12-18T07:30:07;-5.80;99.90
21559;DHT22;10940;48.890;8.240;2022-12-18T07:32:32;-5.80;99.90
21559;DHT22;10940;48.890;8.240;2022-12-18T07:34:58;-5.80;99.90
21559;DHT22;10940;48.890;8.240;2022-12-18T07:37:23;-5.80;99.90
21559;DHT22;10940;48.890;8.240;2022-12-18T07:39:49;-5.90;99.90
21559;DHT22;10940;48.890;8.240;2022-12-18T07:42:15;-5.90;99.90
21559;DHT22;10940;48.890;8.240;2022-12-18T07:45:02;-5.90;99.90
21559;DHT22;10940;48.890;8.240;2022-12-18T07:47:34;-5.90;99.90
21559;DHT22;10940;48.890;8.240;2022-12-18T07:49:59;-5.90;99.90
21559;DHT22;10940;48.890;8.240;2022-12-18T07:52:25;-5.90;99.90
21559;DHT22;10940;48.890;8.240;2022-12-18T07:54:51;-5.90;99.90
21559;DHT22;10940;48.890;8.240;2022-12-18T07:57:17;-5.80;99.90
21559;DHT22;10940;48.890;8.240;2022-12-18T07:59:43;-5.70;99.90
21559;DHT22;10940;48.890;8.240;2022-12-18T08:02:08;-5.70;99.90
21559;DHT22;10940;48.890;8.240;2022-12-18T08:04:34;-5.60;99.90
21559;DHT22;10940;48.890;8.240;2022-12-18T08:07:00;-5.60;99.90
21559;DHT22;10940;48.890;8.240;2022-12-18T08:09:26;-5.60;99.90
21559;DHT22;10940;48.890;8.240;2022-12-18T08:11:51;-5.70;99.90
21559;DHT22;10940;48.890;8.240;2022-12-18T08:14:17;-5.70;99.90
21559;DHT22;10940;48.890;8.240;2022-12-18T08:16:42;-5.60;99.90
21559;DHT22;10940;48.890;8.240;2022-12-18T08:19:08;-5.50;99.90
21559;DHT22;10940;48.890;8.240;2022-12-18T08:21:35;-5.60;99.90
21559;DHT22;10940;48.890;8.240;2022-12-18T08:24:02;-5.50;99.90
21559;DHT22;10940;48.890;8.240;2022-12-18T08:26:29;-5.50;99.90
21559;DHT22;10940;48.890;8.240;2022-12-18T08:28:56;-5.50;99.90
21559;DHT22;10940;48.890;8.240;2022-12-18T08:31:22;-5.50;99.90
21559;DHT22;10940;48.890;8.240;2022-12-18T08:33:49;-5.50;99.90
21559;DHT22;10940;48.890;8.240;2022-12-18T08:36:16;-5.50;99.90
21559;DHT22;10940;48.890;8.240;2022-12-18T08:38:42;-5.50;99.90
21559;DHT22;10940;48.890;8.240;2022-12-18T08:41:10;-5.50;99.90
21559;DHT22;10940;48.890;8.240;2022-12-18T08:43:36;-5.50;99.90
21559;DHT22;10940;48.890;8.240;2022-12-18T08:46:21;-5.50;99.90
21559;DHT22;10940;48.890;8.240;2022-12-18T08:48:48;-5.40;99.90
21559;DHT22;10940;48.890;8.240;2022-12-18T08:51:16;-5.40;99.90
21559;DHT22;10940;48.890;8.240;2022-12-18T08:53:43;-5.30;99.90
21559;DHT22;10940;48.890;8.240;2022-12-18T08:56:09;-5.30;99.90
21559;DHT22;10940;48.890;8.240;2022-12-18T08:58:35;-5.30;99.90
21559;DHT22;10940;48.890;8.240;2022-12-18T09:01:02;-5.30;99.90
21559;DHT22;10940;48.890;8.240;2022-12-18T09:03:28;-5.30;99.90
21559;DHT22;10940;48.890;8.240;2022-12-18T09:05:54;-5.30;99.90
21559;DHT22;10940;48.890;8.240;2022-12-18T09:08:19;-5.40;99.90
21559;DHT22;10940;48.890;8.240;2022-12-18T09:10:47;-5.40;99.90
21559;DHT22;10940;48.890;8.240;2022-12-18T09:13:13;-5.50;99.90
21559;DHT22;10940;48.890;8.240;2022-12-18T09:15:48;-5.50;99.90
21559;DHT22;10940;48.890;8.240;2022-12-18T09:18:16;-5.40;99.90
21559;DHT22;10940;48.890;8.240;2022-12-18T09:20:42;-5.30;99.90
21559;DHT22;10940;48.890;8.240;2022-12-18T09:23:08;-5.20;99.90
21559;DHT22;10940;48.890;8.240;2022-12-18T09:25:35;-5.10;99.90
21559;DHT22;10940;48.890;8.240;2022-12-18T09:28:05;-5.10;99.90
21559;DHT22;10940;48.890;8.240;2022-12-18T09:30:31;-5.10;99.90
21559;DHT22;10940;48.890;8.240;2022-12-18T09:33:00;-5.10;99.90
21559;DHT22;10940;48.890;8.240;2022-12-18T09:35:25;-5.10;99.90
21559;DHT22;10940;48.890;8.240;2022-12-18T09:37:53;-5.10;99.90
21559;DHT22;10940;48.890;8.240;2022-12-18T09:40:22;-5.10;99.90
21559;DHT22;10940;48.890;8.240;2022-12-18T09:42:55;-5.00;99.90
21559;DHT22;10940;48.890;8.240;2022-12-18T09:45:23;-4.90;99.90
21559;DHT22;10940;48.890;8.240;2022-12-18T09:47:50;-5.00;99.90
21559;DHT22;10940;48.890;8.240;2022-12-18T09:50:40;-5.00;99.90
21559;DHT22;10940;48.890;8.240;2022-12-18T09:53:14;-4.90;99.90
21559;DHT22;10940;48.890;8.240;2022-12-18T09:55:43;-4.80;99.90
21559;DHT22;10940;48.890;8.240;2022-12-18T10:00:35;-4.70;99.90
21559;DHT22;10940;48.890;8.240;2022-12-18T10:03:08;-4.70;99.90
21559;DHT22;10940;48.890;8.240;2022-12-18T10:11:03;-4.80;99.90
21559;DHT22;10940;48.890;8.240;2022-12-18T10:13:43;-4.80;99.90
21559;DHT22;10940;48.890;8.240;2022-12-18T10:16:26;-4.80;99.90
21559;DHT22;10940;48.890;8.240;2022-12-18T10:24:37;-4.90;99.90
21559;DHT22;10940;48.890;8.240;2022-12-18T10:27:16;-4.90;99.90
21559;DHT22;10940;48.890;8.240;2022-12-18T10:29:43;-4.90;99.90
21559;DHT22;10940;48.890;8.240;2022-12-18T10:32:18;-4.90;99.90
21559;DHT22;10940;48.890;8.240;2022-12-18T10:34:46;-4.90;99.90
21559;DHT22;10940;48.890;8.240;2022-12-18T10:37:16;-4.90;99.90
21559;DHT22;10940;48.890;8.240;2022-12-18T10:39:42;-4.90;99.90
21559;DHT22;10940;48.890;8.240;2022-12-18T10:42:17;-4.80;99.90
21559;DHT22;10940;48.890;8.240;2022-12-18T10:44:43;-4.80;99.90
21559;DHT22;10940;48.890;8.240;2022-12-18T10:47:15;-4.70;99.90
21559;DHT22;10940;48.890;8.240;2022-12-18T10:49:52;-4.70;99.90
21559;DHT22;10940;48.890;8.240;2022-12-18T10:52:23;-4.70;99.90
21559;DHT22;10940;48.890;8.240;2022-12-18T10:54:53;-4.70;99.90
21559;DHT22;10940;48.890;8.240;2022-12-18T10:59:56;-4.60;99.90
21559;DHT22;10940;48.890;8.240;2022-12-18T11:02:36;-4.60;99.90
21559;DHT22;10940;48.890;8.240;2022-12-18T11:05:02;-4.60;99.90
21559;DHT22;10940;48.890;8.240;2022-12-18T11:07:48;-4.60;99.90
21559;DHT22;10940;48.890;8.240;2022-12-18T11:10:19;-4.60;99.90
21559;DHT22;10940;48.890;8.240;2022-12-18T11:12:45;-4.60;99.90
21559;DHT22;10940;48.890;8.240;2022-12-18T11:15:21;-4.50;99.90
21559;DHT22;10940;48.890;8.240;2022-12-18T11:17:50;-4.50;99.90
21559;DHT22;10940;48.890;8.240;2022-12-18T11:23:04;-4.50;99.90
21559;DHT22;10940;48.890;8.240;2022-12-18T11:25:32;-4.50;99.90
21559;DHT22;10940;48.890;8.240;2022-12-18T11:28:00;-4.50;99.90
21559;DHT22;10940;48.890;8.240;2022-12-18T11:30:33;-4.50;99.90
21559;DHT22;10940;48.890;8.240;2022-12-18T11:33:19;-4.50;99.90
21559;DHT22;10940;48.890;8.240;2022-12-18T11:35:49;-4.50;99.90
21559;DHT22;10940;48.890;8.240;2022-12-18T11:38:25;-4.60;99.90
21559;DHT22;10940;48.890;8.240;2022-12-18T11:43:54;-4.60;99.90
21559;DHT22;10940;48.890;8.240;2022-12-18T11:46:37;-4.60;99.90
21559;DHT22;10940;48.890;8.240;2022-12-18T11:49:11;-4.60;99.90
21559;DHT22;10940;48.890;8.240;2022-12-18T11:51:43;-4.60;99.90
21559;DHT22;10940;48.890;8.240;2022-12-18T11:54:13;-4.50;99.90
21559;DHT22;10940;48.890;8.240;2022-12-18T12:05:03;-4.40;99.90
21559;DHT22;10940;48.890;8.240;2022-12-18T12:07:54;-4.30;99.90
21559;DHT22;10940;48.890;8.240;2022-12-18T12:16:17;-4.30;99.90
21559;DHT22;10940;48.890;8.240;2022-12-18T12:21:41;-4.20;99.90
21559;DHT22;10940;48.890;8.240;2022-12-18T12:24:38;-4.20;99.90
21559;DHT22;10940;48.890;8.240;2022-12-18T12:27:30;-4.20;99.90
21559;DHT22;10940;48.890;8.240;2022-12-18T12:32:51;-4.20;99.90
21559;DHT22;10940;48.890;8.240;2022-12-18T12:38:00;-4.10;99.90
21559;DHT22;10940;48.890;8.240;2022-12-18T12:40:35;-4.10;99.90
21559;DHT22;10940;48.890;8.240;2022-12-18T12:43:17;-4.10;99.90
21559;DHT22;10940;48.890;8.240;2022-12-18T12:46:07;-4.10;99.90
21559;DHT22;10940;48.890;8.240;2022-12-18T12:48:49;-4.00;99.90
21559;DHT22;10940;48.890;8.240;2022-12-18T12:51:26;-4.10;99.90
21559;DHT22;10940;48.890;8.240;2022-12-18T12:53:55;-4.10;99.90
21559;DHT22;10940;48.890;8.240;2022-12-18T12:56:32;-4.10;99.90
21559;DHT22;10940;48.890;8.240;2022-12-18T12:59:15;-4.10;99.90
21559;DHT22;10940;48.890;8.240;2022-12-18T13:02:01;-4.00;99.90
21559;DHT22;10940;48.890;8.240;2022-12-18T13:04:52;-4.10;99.90
21559;DHT22;10940;48.890;8.240;2022-12-18T13:07:26;-4.20;99.90
21559;DHT22;10940;48.890;8.240;2022-12-18T13:10:38;-4.20;99.90
21559;DHT22;10940;48.890;8.240;2022-12-18T13:13:08;-4.30;99.90
21559;DHT22;10940;48.890;8.240;2022-12-18T13:15:44;-4.30;99.90
21559;DHT22;10940;48.890;8.240;2022-12-18T13:21:04;-4.30;99.90
21559;DHT22;10940;48.890;8.240;2022-12-18T13:23:36;-4.40;99.90
21559;DHT22;10940;48.890;8.240;2022-12-18T13:31:00;-4.40;99.90
21559;DHT22;10940;48.890;8.240;2022-12-18T13:41:39;-4.30;99.90
21559;DHT22;10940;48.890;8.240;2022-12-18T13:46:48;-4.20;99.90
21559;DHT22;10940;48.890;8.240;2022-12-18T13:49:37;-4.00;99.90
21559;DHT22;10940;48.890;8.240;2022-12-18T13:52:16;-4.00;99.90
21559;DHT22;10940;48.890;8.240;2022-12-18T13:54:42;-4.00;99.90
21559;DHT22;10940;48.890;8.240;2022-12-18T13:59:52;-3.80;99.90
21559;DHT22;10940;48.890;8.240;2022-12-18T14:02:23;-3.70;99.90
21559;DHT22;10940;48.890;8.240;2022-12-18T14:04:50;-3.70;99.90
21559;DHT22;10940;48.890;8.240;2022-12-18T14:07:22;-3.60;99.90
21559;DHT22;10940;48.890;8.240;2022-12-18T14:09:53;-3.60;99.90
21559;DHT22;10940;48.890;8.240;2022-12-18T14:12:26;-3.60;99.90
21559;DHT22;10940;48.890;8.240;2022-12-18T14:20:43;-3.50;99.90
21559;DHT22;10940;48.890;8.240;2022-12-18T14:23:39;-3.50;99.90
21559;DHT22;10940;48.890;8.240;2022-12-18T14:26:28;-3.50;99.90
21559;DHT22;10940;48.890;8.240;2022-12-18T14:29:00;-3.50;99.90
21559;DHT22;10940;48.890;8.240;2022-12-18T14:31:29;-3.60;99.90
21559;DHT22;10940;48.890;8.240;2022-12-18T14:33:55;-3.60;99.90
21559;DHT22;10940;48.890;8.240;2022-12-18T14:36:27;-3.60;99.90
21559;DHT22;10940;48.890;8.240;2022-12-18T14:38:54;-3.60;99.90
21559;DHT22;10940;48.890;8.240;2022-12-18T14:41:21;-3.60;99.90
21559;DHT22;10940;48.890;8.240;2022-12-18T14:43:49;-3.70;99.90
21559;DHT22;10940;48.890;8.240;2022-12-18T14:46:34;-3.60;99.90
21559;DHT22;10940;48.890;8.240;2022-12-18T14:49:04;-3.70;99.90
21559;DHT22;10940;48.890;8.240;2022-12-18T14:51:33;-3.70;99.90
21559;DHT22;10940;48.890;8.240;2022-12-18T14:54:01;-3.70;99.90
21559;DHT22;10940;48.890;8.240;2022-12-18T14:56:32;-3.60;99.90
21559;DHT22;10940;48.890;8.240;2022-12-18T14:59:12;-3.60;99.90
21559;DHT22;10940;48.890;8.240;2022-12-18T15:04:35;-3.70;99.90
21559;DHT22;10940;48.890;8.240;2022-12-18T15:09:30;-3.80;99.90
21559;DHT22;10940;48.890;8.240;2022-12-18T15:11:58;-3.80;99.90
21559;DHT22;10940;48.890;8.240;2022-12-18T15:16:56;-3.90;99.90
21559;DHT22;10940;48.890;8.240;2022-12-18T15:19:34;-3.90;99.90
21559;DHT22;10940;48.890;8.240;2022-12-18T15:22:01;-3.90;99.90
21559;DHT22;10940;48.890;8.240;2022-12-18T15:24:30;-3.90;99.90
21559;DHT22;10940;48.890;8.240;2022-12-18T15:26:57;-4.00;99.90
21559;DHT22;10940;48.890;8.240;2022-12-18T15:29:23;-3.90;99.90
21559;DHT22;10940;48.890;8.240;2022-12-18T15:32:04;-4.00;99.90
21559;DHT22;10940;48.890;8.240;2022-12-18T15:34:31;-3.90;99.90
21559;DHT22;10940;48.890;8.240;2022-12-18T15:37:00;-3.90;99.90
21559;DHT22;10940;48.890;8.240;2022-12-18T15:39:25;-3.80;99.90
21559;DHT22;10940;48.890;8.240;2022-12-18T15:41:51;-3.90;99.90
21559;DHT22;10940;48.890;8.240;2022-12-18T15:44:36;-3.90;99.90
21559;DHT22;10940;48.890;8.240;2022-12-18T15:47:10;-3.90;99.90
21559;DHT22;10940;48.890;8.240;2022-12-18T15:49:37;-3.90;99.90
21559;DHT22;10940;48.890;8.240;2022-12-18T15:52:03;-3.80;99.90
21559;DHT22;10940;48.890;8.240;2022-12-18T15:54:28;-3.80;99.90
21559;DHT22;10940;48.890;8.240;2022-12-18T15:57:13;-3.70;99.90
21559;DHT22;10940;48.890;8.240;2022-12-18T15:59:52;-3.70;99.90
21559;DHT22;10940;48.890;8.240;2022-12-18T16:02:20;-3.70;99.90
21559;DHT22;10940;48.890;8.240;2022-12-18T16:04:48;-3.70;99.90
21559;DHT22;10940;48.890;8.240;2022-12-18T16:07:13;-3.70;99.90
21559;DHT22;10940;48.890;8.240;2022-12-18T16:09:39;-3.80;99.90
21559;DHT22;10940;48.890;8.240;2022-12-18T16:12:06;-3.80;99.90
21559;DHT22;10940;48.890;8.240;2022-12-18T16:14:35;-3.80;99.90
21559;DHT22;10940;48.890;8.240;2022-12-18T16:17:02;-3.90;99.90
21559;DHT22;10940;48.890;8.240;2022-12-18T16:19:28;-3.90;99.90
21559;DHT22;10940;48.890;8.240;2022-12-18T16:21:55;-3.90;99.90
21559;DHT22;10940;48.890;8.240;2022-12-18T16:24:23;-3.90;99.90
21559;DHT22;10940;48.890;8.240;2022-12-18T16:26:50;-3.90;99.90
21559;DHT22;10940;48.890;8.240;2022-12-18T16:29:20;-3.80;99.90
21559;DHT22;10940;48.890;8.240;2022-12-18T16:31:50;-3.80;99.90
21559;DHT22;10940;48.890;8.240;2022-12-18T16:34:29;-3.80;99.90
21559;DHT22;10940;48.890;8.240;2022-12-18T16:36:59;-3.70;99.90
21559;DHT22;10940;48.890;8.240;2022-12-18T16:39:25;-3.70;99.90
21559;DHT22;10940;48.890;8.240;2022-12-18T16:41:51;-3.60;99.90
21559;DHT22;10940;48.890;8.240;2022-12-18T16:44:17;-3.60;99.90
21559;DHT22;10940;48.890;8.240;2022-12-18T16:46:43;-3.60;99.90
21559;DHT22;10940;48.890;8.240;2022-12-18T16:49:11;-3.60;99.90
21559;DHT22;10940;48.890;8.240;2022-12-18T16:51:37;-3.60;99.90
21559;DHT22;10940;48.890;8.240;2022-12-18T16:54:03;-3.70;99.90
21559;DHT22;10940;48.890;8.240;2022-12-18T16:56:29;-3.60;99.90
21559;DHT22;10940;48.890;8.240;2022-12-18T16:58:56;-3.70;99.90
21559;DHT22;10940;48.890;8.240;2022-12-18T17:01:24;-3.70;99.90
21559;DHT22;10940;48.890;8.240;2022-12-18T17:03:55;-3.70;99.90
21559;DHT22;10940;48.890;8.240;2022-12-18T17:06:22;-3.70;99.90
21559;DHT22;10940;48.890;8.240;2022-12-18T17:08:48;-3.70;99.90
21559;DHT22;10940;48.890;8.240;2022-12-18T17:11:19;-3.70;99.90
21559;DHT22;10940;48.890;8.240;2022-12-18T17:13:44;-3.70;99.90
21559;DHT22;10940;48.890;8.240;2022-12-18T17:16:10;-3.70;99.90
21559;DHT22;10940;48.890;8.240;2022-12-18T17:18:36;-3.70;99.90
21559;DHT22;10940;48.890;8.240;2022-12-18T17:21:03;-3.60;99.90
21559;DHT22;10940;48.890;8.240;2022-12-18T17:23:29;-3.60;99.90
21559;DHT22;10940;48.890;8.240;2022-12-18T17:25:58;-3.70;99.90